Time;durP1;ratioP1;P1;durP2;ratioP2;P2;SDS_P1;SDS_P2;PMS_P1;PMS_P2;Temp;Humidity;BMP_temperature;BMP_pressure;BME280_temperature;BME280_humidity;BME280_pressure;Samples;Min_cycle;Max_cycle;Signal;HPM_P1;HPM_P2
2020/12/18 00:00:44;;;;;;;14.07;10.23;;;5.50;99.90;;;;;;10052628;29;20432;-92
2020/12/18 00:05:46;;;;;;;19.70;11.18;;;5.80;99.90;;;;;;10086312;29;20117;-93
2020/12/18 00:10:47;;;;;;;19.48;13.30;;;5.60;99.90;;;;;;10085310;29;20102;-90
2020/12/18 00:15:52;;;;;;;17.15;11.70;;;6.00;99.90;;;;;;10071317;29;20113;-92
2020/12/18 00:20:54;;;;;;;27.17;14.25;;;6.00;99.90;;;;;;10070325;29;20068;-91
2020/12/18 00:25:55;;;;;;;25.33;11.60;;;5.90;99.90;;;;;;10041878;29;20068;-91
2020/12/18 00:30:56;;;;;;;19.42;13.98;;;5.50;99.90;;;;;;10031641;29;20053;-91
2020/12/18 00:35:58;;;;;;;17.55;11.98;;;6.40;99.90;;;;;;10031729;29;20061;-93
2020/12/18 00:41:00;;;;;;;25.73;13.63;;;6.30;99.90;;;;;;10048175;29;20062;-93
2020/12/18 00:46:04;;;;;;;17.55;10.57;;;5.80;99.90;;;;;;10030811;29;20489;-92
2020/12/18 00:51:06;;;;;;;18.17;12.77;;;6.10;99.90;;;;;;10064360;29;20057;-92
2020/12/18 00:56:08;;;;;;;19.13;12.15;;;6.50;99.90;;;;;;10054556;29;20053;-92
2020/12/18 01:01:10;;;;;;;26.60;12.52;;;6.60;99.90;;;;;;10084498;29;20075;-92
2020/12/18 01:06:12;;;;;;;18.80;12.85;;;6.10;99.90;;;;;;10084449;29;20136;-91
2020/12/18 01:11:14;;;;;;;23.42;13.27;;;6.00;99.90;;;;;;10084380;29;20053;-91
2020/12/18 01:16:15;;;;;;;18.02;12.00;;;6.30;99.90;;;;;;10054323;29;20577;-92
2020/12/18 01:21:17;;;;;;;17.60;11.02;;;5.80;99.90;;;;;;10068905;29;20394;-91
2020/12/18 01:26:19;;;;;;;23.27;11.85;;;6.00;99.90;;;;;;10083025;29;20065;-91
2020/12/18 01:31:21;;;;;;;21.15;11.25;;;6.30;99.90;;;;;;10067924;29;20061;-92
2020/12/18 01:36:23;;;;;;;21.13;11.88;;;6.00;99.90;;;;;;10083538;29;20148;-92
2020/12/18 01:41:25;;;;;;;22.50;10.50;;;5.60;99.90;;;;;;10068023;29;20057;-92
2020/12/18 01:46:30;;;;;;;29.98;12.77;;;5.90;99.90;;;;;;10052697;29;20139;-92
2020/12/18 01:51:32;;;;;;;21.08;10.73;;;6.00;99.90;;;;;;10082792;29;20469;-92
2020/12/18 01:56:34;;;;;;;15.45;9.88;;;5.40;99.90;;;;;;10083660;29;20148;-93
2020/12/18 02:01:35;;;;;;;25.58;10.35;;;5.80;99.90;;;;;;10081492;29;20247;-92
2020/12/18 02:06:38;;;;;;;18.17;9.43;;;6.10;99.90;;;;;;10067154;29;20121;-91
2020/12/18 02:11:40;;;;;;;19.70;11.02;;;6.20;99.90;;;;;;10100666;29;20060;-93
2020/12/18 02:16:42;;;;;;;24.55;10.52;;;5.80;99.90;;;;;;10106464;29;20143;-92
2020/12/18 02:21:43;;;;;;;;;;;6.10;99.90;;;;;;10090210;29;20420;-92
2020/12/18 02:26:45;;;;;;;22.88;10.48;;;5.70;99.90;;;;;;10075158;29;19923;-92
2020/12/18 02:31:50;;;;;;;25.65;11.98;;;6.00;99.90;;;;;;10074345;29;20059;-92
2020/12/18 02:36:52;;;;;;;15.10;10.10;;;6.20;99.90;;;;;;10069789;29;20083;-92
2020/12/18 02:41:53;;;;;;;;;;;5.70;99.90;;;;;;10036167;29;20148;-92
2020/12/18 02:46:55;;;;;;;19.90;10.38;;;6.10;99.90;;;;;;10035838;29;19976;-92
2020/12/18 02:51:57;;;;;;;18.35;9.52;;;6.30;99.90;;;;;;10035137;29;20425;-92
2020/12/18 02:56:58;;;;;;;19.48;10.88;;;6.10;99.90;;;;;;10050534;29;20061;-92
2020/12/18 03:02:00;;;;;;;18.70;9.23;;;5.90;99.90;;;;;;10034901;29;20073;-92
2020/12/18 03:07:01;;;;;;;16.27;9.93;;;6.20;99.90;;;;;;10024569;29;20112;-92
2020/12/18 03:12:03;;;;;;;21.15;10.23;;;6.30;99.90;;;;;;10100455;29;20132;-92
2020/12/18 03:17:05;;;;;;;21.80;10.68;;;5.60;99.90;;;;;;10088855;29;20065;-92
2020/12/18 03:22:07;;;;;;;;;;;5.90;99.90;;;;;;10072187;29;20121;-92
2020/12/18 03:27:08;;;;;;;15.68;8.80;;;6.20;99.90;;;;;;10072440;29;19927;-92
2020/12/18 03:32:10;;;;;;;20.67;9.65;;;5.80;99.90;;;;;;10072486;29;20107;-92
2020/12/18 03:37:11;;;;;;;18.67;9.65;;;6.10;99.90;;;;;;10048995;29;20060;-92
2020/12/18 03:42:13;;;;;;;18.95;10.05;;;5.90;99.90;;;;;;10033785;29;20065;-92
2020/12/18 03:47:14;;;;;;;14.57;9.35;;;5.70;99.90;;;;;;10048439;29;20149;-92
2020/12/18 03:52:16;;;;;;;19.80;8.68;;;5.90;99.90;;;;;;10018243;29;20057;-92
2020/12/18 03:57:17;;;;;;;17.63;10.10;;;5.50;99.90;;;;;;10033510;29;20148;-93
2020/12/18 04:02:19;;;;;;;13.43;8.52;;;6.00;99.90;;;;;;10049225;29;20117;-92
2020/12/18 04:07:20;;;;;;;19.98;8.52;;;6.20;99.90;;;;;;10018194;29;20073;-93
2020/12/18 04:12:22;;;;;;;16.38;8.45;;;6.10;99.90;;;;;;10032592;29;20072;-92
2020/12/18 04:17:24;;;;;;;21.88;12.05;;;5.90;99.90;;;;;;10047710;29;20072;-92
2020/12/18 04:22:25;;;;;;;15.05;8.10;;;5.90;99.90;;;;;;10032314;29;20065;-93
2020/12/18 04:27:27;;;;;;;13.45;8.73;;;6.40;99.90;;;;;;10032559;29;20145;-93
2020/12/18 04:32:29;;;;;;;16.25;9.93;;;5.50;99.90;;;;;;10031572;29;20137;-92
2020/12/18 04:37:30;;;;;;;12.57;8.82;;;5.80;99.90;;;;;;10060969;29;20525;-92
2020/12/18 04:42:34;;;;;;;15.13;9.07;;;5.50;99.90;;;;;;10055118;29;20185;-92
2020/12/18 04:47:42;;;;;;;14.05;7.93;;;6.10;99.90;;;;;;10100586;29;20144;-91
2020/12/18 04:52:45;;;;;;;14.38;7.10;;;5.80;99.90;;;;;;10068965;29;20053;-92
2020/12/18 04:57:48;;;;;;;19.40;8.82;;;6.10;99.90;;;;;;10037542;29;20089;-92
2020/12/18 05:02:51;;;;;;;18.50;7.80;;;6.00;99.90;;;;;;10031900;29;20092;-93
2020/12/18 05:07:53;;;;;;;13.63;7.80;;;5.80;99.90;;;;;;10030764;29;20068;-92
2020/12/18 05:12:54;;;;;;;11.25;7.00;;;6.00;99.90;;;;;;10029740;29;20063;-91
2020/12/18 05:17:56;;;;;;;13.00;7.78;;;6.00;99.90;;;;;;10020701;29;20053;-93
2020/12/18 05:22:58;;;;;;;16.00;7.00;;;5.50;99.90;;;;;;10098127;29;20084;-93
2020/12/18 05:28:03;;;;;;;14.15;7.05;;;6.10;99.90;;;;;;10037462;29;20065;-91
2020/12/18 05:33:05;;;;;;;9.32;6.40;;;5.50;99.90;;;;;;10068779;29;20108;-92
2020/12/18 05:38:07;;;;;;;13.60;6.47;;;5.90;99.90;;;;;;10074476;29;20061;-92
2020/12/18 05:43:14;;;;;;;13.65;6.78;;;5.90;99.90;;;;;;10045206;29;20091;-93
2020/12/18 05:48:16;;;;;;;13.20;7.75;;;5.50;99.90;;;;;;10046072;29;20057;-93
2020/12/18 05:53:18;;;;;;;17.55;7.30;;;5.90;99.90;;;;;;10044850;29;20061;-91
2020/12/18 05:58:25;;;;;;;10.40;6.43;;;5.70;99.90;;;;;;9999634;29;20148;-92
2020/12/18 06:03:36;;;;;;;16.92;6.10;;;5.70;99.90;;;;;;10015501;29;20053;-92
2020/12/18 06:08:43;;;;;;;17.40;6.57;;;6.40;99.90;;;;;;10045114;29;20145;-95
2020/12/18 09:05:43;;;;;;;14.75;6.43;;;6.50;99.90;;;;;;10085383;29;20054;-93
2020/12/18 09:10:54;;;;;;;12.60;5.55;;;6.80;99.90;;;;;;10021511;29;20150;-93
2020/12/18 09:16:02;;;;;;;15.82;7.93;;;7.50;99.90;;;;;;10008760;29;20050;-93
2020/12/18 09:21:15;;;;;;;14.02;5.55;;;7.50;99.90;;;;;;10022208;29;20065;-93
2020/12/18 09:26:26;;;;;;;8.73;5.45;;;7.20;99.90;;;;;;9993627;29;20085;-93
2020/12/18 09:31:28;;;;;;;10.40;5.72;;;7.30;99.90;;;;;;9992876;29;20054;-93
2020/12/18 09:36:29;;;;;;;10.68;6.07;;;7.70;99.90;;;;;;9993251;29;20078;-94
2020/12/18 09:41:31;;;;;;;15.88;6.55;;;8.00;99.90;;;;;;9993644;29;20585;-93
2020/12/18 09:46:32;;;;;;;11.80;4.72;;;7.70;99.90;;;;;;10007507;29;20069;-93
2020/12/18 09:51:34;;;;;;;9.30;5.00;;;8.00;99.90;;;;;;10006823;29;20137;-93
2020/12/18 09:56:36;;;;;;;16.73;6.38;;;7.30;99.90;;;;;;9992809;29;20486;-93
2020/12/18 10:01:37;;;;;;;14.35;6.13;;;7.80;99.90;;;;;;10006348;29;20518;-93
2020/12/18 10:06:39;;;;;;;11.20;5.63;;;8.20;99.90;;;;;;10036365;29;20061;-93
2020/12/18 10:11:41;;;;;;;9.52;5.60;;;7.70;99.90;;;;;;10038759;29;20080;-93
2020/12/18 10:16:42;;;;;;;12.13;5.97;;;8.20;99.90;;;;;;10067637;29;20565;-93
2020/12/18 10:21:44;;;;;;;17.35;6.50;;;8.00;99.90;;;;;;10067467;29;20088;-92
2020/12/18 10:26:48;;;;;;;14.23;6.72;;;7.80;99.90;;;;;;10052101;29;20077;-93
2020/12/18 10:31:57;;;;;;;8.63;5.00;;;7.90;99.90;;;;;;10052247;29;20136;-93
2020/12/18 10:36:59;;;;;;;11.60;6.97;;;8.30;99.90;;;;;;10074997;29;20085;-94
2020/12/18 10:42:02;;;;;;;14.13;5.90;;;8.20;99.90;;;;;;10075174;29;20072;-93
2020/12/18 10:47:04;;;;;;;13.48;5.88;;;8.30;99.90;;;;;;10059483;29;20143;-93
2020/12/18 10:52:06;;;;;;;13.93;5.63;;;8.40;99.90;;;;;;10074369;29;20073;-94
2020/12/18 10:57:08;;;;;;;12.55;5.97;;;8.50;99.90;;;;;;10074198;29;20164;-93
2020/12/18 11:02:10;;;;;;;10.65;5.45;;;8.40;99.90;;;;;;10073521;29;20117;-93
2020/12/18 11:07:12;;;;;;;8.63;4.68;;;8.40;99.90;;;;;;10074556;29;20412;-93
2020/12/18 11:12:14;;;;;;;8.52;4.47;;;9.00;99.90;;;;;;10043020;29;20057;-93
2020/12/18 11:17:15;;;;;;;;;;;9.10;99.90;;;;;;10058561;29;20421;-94
2020/12/18 11:22:17;;;;;;;8.32;5.15;;;8.80;99.90;;;;;;10059269;29;19923;-93
2020/12/18 11:27:18;;;;;;;;;;;9.10;99.90;;;;;;10074157;29;20061;-93
2020/12/18 11:32:20;;;;;;;12.30;5.80;;;9.10;99.90;;;;;;10072350;29;19966;-94
2020/12/18 11:37:22;;;;;;;9.73;4.82;;;9.10;99.90;;;;;;10072698;29;20084;-93
2020/12/18 11:42:23;;;;;;;;;;;9.70;99.90;;;;;;10073390;29;20101;-93
2020/12/18 11:47:26;;;;;;;11.38;5.68;;;9.60;99.90;;;;;;10071752;29;19924;-94
2020/12/18 11:52:28;;;;;;;9.93;5.03;;;9.80;99.90;;;;;;10057290;29;20053;-93
2020/12/18 11:57:30;;;;;;;6.45;3.83;;;9.60;99.90;;;;;;10057284;29;20057;-93
2020/12/18 12:02:33;;;;;;;8.50;4.72;;;9.20;99.90;;;;;;10056722;29;20151;-94
2020/12/18 12:07:35;;;;;;;9.82;4.25;;;9.40;99.90;;;;;;10056792;29;20065;-94
2020/12/18 12:12:37;;;;;;;6.25;4.30;;;9.50;99.90;;;;;;10056667;29;20105;-93
2020/12/18 12:17:38;;;;;;;13.30;4.38;;;9.50;99.90;;;;;;10073124;29;20077;-94
2020/12/18 12:22:40;;;;;;;8.68;3.90;;;10.00;99.90;;;;;;10057500;29;20147;-93
2020/12/18 12:34:15;;;;;;;9.82;3.70;;;9.50;99.90;;;;;;2365495;23;20298;-93
2020/12/18 12:39:17;;;;;;;10.52;3.10;;;9.80;99.90;;;;;;10060199;29;20054;-93
2020/12/18 12:44:18;;;;;;;19.40;3.88;;;9.80;99.90;;;;;;10016804;29;20063;-93
2020/12/18 12:49:20;;;;;;;4.43;2.88;;;10.10;99.90;;;;;;10031739;29;20062;-93
2020/12/18 12:54:22;;;;;;;7.70;3.50;;;9.90;99.90;;;;;;10031431;29;20058;-92
2020/12/18 12:59:26;;;;;;;7.80;3.38;;;9.90;99.90;;;;;;10032362;29;20069;-93
2020/12/18 13:04:30;;;;;;;7.20;3.05;;;10.10;99.90;;;;;;9993911;29;20066;-92
2020/12/18 13:09:32;;;;;;;;;;;10.20;99.90;;;;;;10020113;29;20058;-92
2020/12/18 13:14:34;;;;;;;8.73;3.38;;;10.10;99.90;;;;;;10015514;29;20284;-92
2020/12/18 13:19:35;;;;;;;5.00;3.28;;;10.20;99.90;;;;;;10045620;29;20061;-92
2020/12/18 13:24:37;;;;;;;;;;;10.20;99.90;;;;;;10031014;29;20085;-92
2020/12/18 13:29:38;;;;;;;3.60;2.42;;;10.10;99.90;;;;;;10015248;29;19952;-92
2020/12/18 13:34:40;;;;;;;7.10;2.65;;;10.10;99.90;;;;;;10033161;29;20055;-92
2020/12/18 13:39:41;;;;;;;7.68;2.63;;;10.20;99.90;;;;;;10052316;29;20420;-91
2020/12/18 13:44:44;;;;;;;;;;;10.20;99.90;;;;;;10053427;29;20425;-92
2020/12/18 13:49:45;;;;;;;4.28;2.05;;;9.90;99.90;;;;;;10067659;29;19924;-93
2020/12/18 13:54:47;;;;;;;9.90;2.53;;;9.90;99.90;;;;;;10052337;29;20053;-91
2020/12/18 13:59:48;;;;;;;;;;;10.00;99.90;;;;;;10052814;29;20067;-92
2020/12/18 14:04:51;;;;;;;4.93;1.80;;;10.20;99.90;;;;;;10082990;29;20376;-92
2020/12/18 14:09:53;;;;;;;3.17;1.67;;;10.10;99.90;;;;;;10095494;29;20053;-92
2020/12/18 14:14:55;;;;;;;7.13;2.15;;;10.00;99.90;;;;;;10057217;29;20061;-92
2020/12/18 14:19:56;;;;;;;3.15;1.70;;;9.70;99.90;;;;;;10042238;29;20084;-92
2020/12/18 14:24:57;;;;;;;6.63;2.10;;;10.10;99.90;;;;;;10056591;29;20124;-92
2020/12/18 14:30:00;;;;;;;4.55;1.60;;;10.10;99.90;;;;;;10052560;29;20059;-92
2020/12/18 14:35:07;;;;;;;9.68;1.50;;;10.10;99.90;;;;;;10094878;29;20144;-92
2020/12/18 14:40:09;;;;;;;6.32;1.50;;;9.70;99.90;;;;;;10094367;29;20150;-92
2020/12/18 14:45:11;;;;;;;4.22;1.33;;;9.60;99.90;;;;;;10063802;29;20583;-92
2020/12/18 14:50:13;;;;;;;3.22;1.75;;;9.80;99.90;;;;;;10067317;29;20061;-92
2020/12/18 14:55:15;;;;;;;7.35;2.25;;;9.50;99.90;;;;;;10026181;29;20057;-93
2020/12/18 15:00:16;;;;;;;4.95;1.70;;;9.50;99.90;;;;;;10026155;29;20062;-93
2020/12/18 15:05:18;;;;;;;;;;;9.20;99.90;;;;;;10026768;29;20062;-93
2020/12/18 15:10:19;;;;;;;6.07;2.15;;;9.10;99.90;;;;;;10053320;29;19923;-93
2020/12/18 15:15:21;;;;;;;4.95;2.55;;;8.90;99.90;;;;;;10079393;29;20060;-93
2020/12/18 15:20:22;;;;;;;5.60;2.38;;;8.60;99.90;;;;;;10018004;29;20065;-93
2020/12/18 15:25:23;;;;;;;8.45;2.80;;;8.10;99.90;;;;;;10019872;29;20061;-93
2020/12/18 15:30:25;;;;;;;8.25;3.75;;;8.00;99.90;;;;;;10019538;29;20058;-93
2020/12/18 15:35:27;;;;;;;4.93;3.10;;;8.20;99.90;;;;;;10019281;29;20069;-93
2020/12/18 15:40:28;;;;;;;10.02;3.47;;;7.70;99.90;;;;;;10046365;29;20523;-93
2020/12/18 15:45:30;;;;;;;4.60;2.90;;;7.80;99.90;;;;;;10057274;29;20064;-92
2020/12/18 15:50:31;;;;;;;3.35;3.08;;;8.00;99.90;;;;;;10101470;29;20144;-92
2020/12/18 15:55:33;;;;;;;7.38;3.70;;;7.90;99.90;;;;;;10056723;29;20501;-92
2020/12/18 16:00:34;;;;;;;5.45;4.05;;;7.70;99.90;;;;;;10056293;29;20535;-92
2020/12/18 16:05:36;;;;;;;4.50;3.15;;;7.60;99.90;;;;;;10084121;29;20069;-92
2020/12/18 16:10:37;;;;;;;10.85;3.97;;;7.20;99.90;;;;;;10017431;29;20069;-93
2020/12/18 16:15:39;;;;;;;4.15;3.17;;;7.10;99.90;;;;;;10052080;29;20080;-92
2020/12/18 16:20:40;;;;;;;7.78;4.10;;;6.90;99.90;;;;;;10055477;29;20526;-92
2020/12/18 16:25:42;;;;;;;11.55;4.25;;;6.80;99.90;;;;;;10055761;29;20135;-92
2020/12/18 16:30:43;;;;;;;11.10;5.65;;;6.60;99.90;;;;;;10054246;29;20145;-92
2020/12/18 16:35:45;;;;;;;9.10;4.22;;;6.40;99.90;;;;;;10055217;29;20085;-92
2020/12/18 16:40:50;;;;;;;8.02;4.30;;;6.30;99.90;;;;;;10055259;29;20061;-92
2020/12/18 16:45:52;;;;;;;12.18;4.70;;;6.30;99.90;;;;;;10097085;29;20158;-92
2020/12/18 16:50:54;;;;;;;7.65;4.50;;;6.40;99.90;;;;;;10046540;29;20061;-92
2020/12/18 16:55:55;;;;;;;10.88;4.15;;;6.40;99.90;;;;;;10049864;29;20409;-92
2020/12/18 17:00:57;;;;;;;7.65;3.92;;;6.40;99.90;;;;;;10069190;29;20061;-92
2020/12/18 17:05:59;;;;;;;10.60;4.28;;;6.50;99.90;;;;;;10051085;29;20057;-92
2020/12/18 17:11:01;;;;;;;7.10;4.20;;;6.60;99.90;;;;;;10016235;29;20068;-92
2020/12/18 17:16:02;;;;;;;;;;;6.90;99.90;;;;;;10001347;29;20058;-92
2020/12/18 17:21:03;;;;;;;11.65;5.22;;;6.70;99.90;;;;;;10030634;29;19930;-92
2020/12/18 17:26:05;;;;;;;8.07;4.55;;;6.70;99.90;;;;;;10031223;29;20156;-92
2020/12/18 17:31:07;;;;;;;9.55;4.35;;;6.80;99.90;;;;;;10015606;29;20143;-92
2020/12/18 17:36:12;;;;;;;10.20;4.32;;;6.80;99.90;;;;;;10030470;29;20088;-93
2020/12/18 17:41:15;;;;;;;14.40;8.98;;;6.90;99.90;;;;;;10031222;29;20068;-92
2020/12/18 17:46:19;;;;;;;7.75;4.90;;;6.90;99.90;;;;;;10049991;29;20057;-92
2020/12/18 17:51:21;;;;;;;5.50;4.78;;;7.00;99.90;;;;;;10052387;29;20057;-94
2020/12/18 17:56:22;;;;;;;7.15;4.00;;;6.90;99.90;;;;;;10083600;29;20057;-93
2020/12/18 18:01:30;;;;;;;7.38;3.92;;;6.90;99.90;;;;;;10083789;29;20071;-93
2020/12/18 18:06:32;;;;;;;5.40;3.30;;;6.70;99.90;;;;;;10098244;29;20061;-92
2020/12/18 18:11:34;;;;;;;8.85;3.83;;;6.80;99.90;;;;;;10067325;29;20056;-93
2020/12/18 18:16:41;;;;;;;4.35;3.28;;;6.70;99.90;;;;;;10047491;29;20064;-92
2020/12/18 18:21:47;;;;;;;5.00;2.92;;;6.80;99.90;;;;;;10029529;29;20065;-92
2020/12/18 18:26:48;;;;;;;4.95;3.03;;;6.80;99.90;;;;;;10043937;29;20532;-95
2020/12/18 18:31:50;;;;;;;4.38;3.10;;;6.80;99.90;;;;;;9999428;24;20518;-93
2020/12/18 18:36:52;;;;;;;5.60;3.35;;;6.90;99.90;;;;;;9961426;29;20486;-93
2020/12/18 18:41:53;;;;;;;6.90;3.35;;;6.80;99.90;;;;;;9991665;29;20516;-93
2020/12/18 18:47:04;;;;;;;3.17;2.10;;;6.70;99.90;;;;;;9976208;29;20066;-94
2020/12/18 18:52:05;;;;;;;3.58;3.15;;;6.70;99.90;;;;;;10007377;29;20078;-93
2020/12/18 18:57:07;;;;;;;6.20;3.30;;;6.70;99.90;;;;;;10000483;29;20065;-93
2020/12/18 19:02:09;;;;;;;3.67;3.17;;;6.60;99.90;;;;;;9997978;29;20058;-94
2020/12/18 19:07:10;;;;;;;3.83;3.42;;;6.60;99.90;;;;;;9984027;29;20085;-94
2020/12/18 19:12:12;;;;;;;4.63;3.17;;;6.50;99.90;;;;;;10013093;29;20133;-95
2020/12/18 19:17:15;;;;;;;5.60;3.25;;;6.60;99.90;;;;;;10013567;29;20430;-94
2020/12/18 19:22:17;;;;;;;5.15;3.20;;;6.50;99.90;;;;;;9997733;29;20085;-94
2020/12/18 19:27:18;;;;;;;5.68;3.10;;;6.50;99.90;;;;;;9998465;29;20094;-94
2020/12/18 19:32:21;;;;;;;9.18;3.97;;;6.20;99.90;;;;;;9966072;29;20057;-94
2020/12/18 19:37:23;;;;;;;4.75;3.90;;;6.50;99.90;;;;;;9982201;29;20521;-94
2020/12/18 19:42:24;;;;;;;8.45;4.35;;;6.80;99.90;;;;;;10012108;29;20072;-94
2020/12/18 19:47:26;;;;;;;8.55;4.00;;;6.70;99.90;;;;;;9981711;29;20085;-94
2020/12/18 19:52:27;;;;;;;7.40;4.57;;;6.60;99.90;;;;;;10011515;29;20054;-94
2020/12/18 19:57:29;;;;;;;5.22;4.30;;;6.40;99.90;;;;;;9981759;29;20069;-94
2020/12/18 20:02:30;;;;;;;8.93;5.25;;;6.30;99.90;;;;;;10010717;29;20086;-94
2020/12/18 20:07:36;;;;;;;5.90;4.85;;;6.20;99.90;;;;;;10010223;29;20097;-94
2020/12/18 20:12:37;;;;;;;7.10;5.38;;;6.30;99.90;;;;;;9980566;29;20060;-94
2020/12/18 20:17:39;;;;;;;7.40;5.13;;;6.70;99.90;;;;;;9967719;29;20454;-95
2020/12/18 20:22:44;;;;;;;10.05;5.82;;;6.10;99.90;;;;;;9965437;29;20070;-94
2020/12/18 20:27:47;;;;;;;7.75;6.05;;;6.20;99.90;;;;;;10009938;29;20582;-94
2020/12/18 20:32:49;;;;;;;17.23;6.97;;;6.30;99.90;;;;;;9979969;29;20058;-94
2020/12/18 20:37:50;;;;;;;9.25;5.75;;;6.30;99.90;;;;;;10010953;29;20132;-94
2020/12/18 20:42:52;;;;;;;;;;;6.40;99.90;;;;;;10009656;29;20062;-94
2020/12/18 20:47:53;;;;;;;14.30;8.55;;;6.10;99.90;;;;;;9994857;29;19959;-94
2020/12/18 20:52:55;;;;;;;9.10;7.38;;;6.00;99.90;;;;;;10009244;29;20057;-94
2020/12/18 20:57:57;;;;;;;9.20;7.47;;;5.90;99.90;;;;;;9993953;29;20069;-94
2020/12/18 21:02:59;;;;;;;;;;;6.30;99.90;;;;;;9995784;29;20498;-94
2020/12/18 21:08:00;;;;;;;11.05;9.25;;;6.40;99.90;;;;;;9993949;29;20011;-93
2020/12/18 21:13:06;;;;;;;13.13;10.20;;;6.10;99.90;;;;;;9993824;29;20068;-94
2020/12/18 21:18:07;;;;;;;15.80;10.35;;;5.80;99.90;;;;;;10010325;29;20141;-94
2020/12/18 21:23:09;;;;;;;15.57;10.15;;;6.10;99.90;;;;;;10008321;29;20487;-94
2020/12/18 21:28:11;;;;;;;16.95;10.43;;;6.00;99.90;;;;;;10023748;29;20165;-94
2020/12/18 21:33:12;;;;;;;16.17;10.38;;;6.10;99.90;;;;;;10007004;29;20054;-94
2020/12/18 21:38:14;;;;;;;15.13;9.45;;;6.40;99.90;;;;;;10023569;29;20465;-94
2020/12/18 21:43:15;;;;;;;14.13;10.30;;;6.30;99.90;;;;;;9963318;29;20061;-94
2020/12/18 21:48:17;;;;;;;13.65;10.23;;;6.30;99.90;;;;;;10008729;29;20062;-94
2020/12/18 21:53:18;;;;;;;13.77;10.30;;;6.10;99.90;;;;;;9991444;29;20133;-93
2020/12/18 21:58:20;;;;;;;15.40;11.02;;;6.50;99.90;;;;;;10009070;29;20145;-95
2020/12/18 22:03:22;;;;;;;14.93;10.48;;;6.10;99.90;;;;;;10007193;29;20068;-94
2020/12/18 22:08:24;;;;;;;14.00;10.05;;;6.40;99.90;;;;;;10008064;29;20141;-94
2020/12/18 22:13:25;;;;;;;;;;;6.40;99.90;;;;;;10007245;29;20085;-93
2020/12/18 22:18:27;;;;;;;15.30;11.55;;;6.10;99.90;;;;;;9993271;29;20011;-94
2020/12/18 22:23:28;;;;;;;19.65;12.80;;;6.40;99.90;;;;;;9991269;29;20141;-94
2020/12/18 22:28:30;;;;;;;15.43;12.57;;;6.40;99.90;;;;;;9992932;29;20132;-94
2020/12/18 22:33:32;;;;;;;15.93;12.00;;;6.00;99.90;;;;;;9999505;29;20081;-95
2020/12/18 22:38:34;;;;;;;17.23;12.15;;;6.30;99.90;;;;;;9998882;29;20529;-94
2020/12/18 22:43:36;;;;;;;18.45;12.10;;;5.80;99.90;;;;;;10000263;29;20099;-94
2020/12/18 22:48:38;;;;;;;18.73;12.57;;;5.90;99.90;;;;;;10000098;29;20086;-95
2020/12/18 22:53:41;;;;;;;18.77;13.70;;;5.80;99.90;;;;;;9997800;29;20107;-94
2020/12/18 22:58:42;;;;;;;19.10;13.32;;;6.10;99.90;;;;;;10028732;29;20136;-94
2020/12/18 23:03:44;;;;;;;17.67;13.75;;;6.00;99.90;;;;;;10028440;29;20149;-95
2020/12/18 23:08:45;;;;;;;19.70;14.52;;;6.00;99.90;;;;;;9999910;29;20144;-94
2020/12/18 23:13:47;;;;;;;18.40;13.48;;;5.90;99.90;;;;;;9997369;29;20088;-93
2020/12/18 23:18:48;;;;;;;22.95;16.25;;;5.80;99.90;;;;;;10027503;29;20058;-94
2020/12/18 23:23:50;;;;;;;19.58;14.98;;;6.00;99.90;;;;;;9997358;29;20098;-94
2020/12/18 23:28:52;;;;;;;20.55;15.05;;;6.00;99.90;;;;;;9996596;29;20514;-94
2020/12/18 23:33:54;;;;;;;22.45;15.27;;;5.90;99.90;;;;;;10026159;29;20110;-95
2020/12/18 23:38:55;;;;;;;29.40;14.35;;;5.90;99.90;;;;;;10026293;29;20629;-94
2020/12/18 23:43:57;;;;;;;;;;;5.90;99.90;;;;;;9997695;29;20119;-93
2020/12/18 23:48:59;;;;;;;23.10;16.17;;;6.10;99.90;;;;;;9996857;29;19925;-94
2020/12/18 23:54:00;;;;;;;33.35;15.80;;;5.90;99.90;;;;;;10011634;29;20084;-95
2020/12/18 23:59:02;;;;;;;20.15;15.40;;;5.60;99.90;;;;;;9996508;29;20140;-94
